createdAt,value
2022-12-23T00:00:42.004Z,85.35
2022-12-23T00:03:08.861Z,84.70
2022-12-23T00:05:39.602Z,85.53
2022-12-23T00:08:07.563Z,85.92
2022-12-23T00:10:35.219Z,85.28
2022-12-23T00:13:20.647Z,85.46
2022-12-23T00:15:47.360Z,84.53
2022-12-23T00:18:14.799Z,84.71
2022-12-23T00:20:41.471Z,84.16
2022-12-23T00:23:08.162Z,84.65
2022-12-23T00:25:41.212Z,84.41
2022-12-23T00:28:10.349Z,84.03
2022-12-23T00:30:38.299Z,84.19
2022-12-23T00:33:08.173Z,83.74
2022-12-23T00:35:34.822Z,83.28
2022-12-23T00:38:01.477Z,82.84
2022-12-23T00:40:46.840Z,83.04
2022-12-23T00:43:13.455Z,83.66
2022-12-23T00:45:40.118Z,84.02
2022-12-23T00:48:25.481Z,84.41
2022-12-23T00:50:53.389Z,84.30
2022-12-23T00:53:21.108Z,83.54
2022-12-23T00:55:48.029Z,83.51
2022-12-23T00:58:15.919Z,83.55
2022-12-23T01:01:01.820Z,83.58
2022-12-23T01:03:47.825Z,84.14
2022-12-23T01:06:14.737Z,83.73
2022-12-23T01:08:41.887Z,84.04
2022-12-23T01:11:10.396Z,83.80
2022-12-23T01:13:37.871Z,83.44
2022-12-23T01:16:14.985Z,83.35
2022-12-23T01:18:44.113Z,83.38
2022-12-23T01:21:13.902Z,83.23
2022-12-23T01:23:40.993Z,82.82
2022-12-23T01:26:08.554Z,83.17
2022-12-23T01:28:35.893Z,83.43
2022-12-23T01:31:04.749Z,83.11
2022-12-23T01:33:32.432Z,83.00
2022-12-23T01:36:00.459Z,83.42
2022-12-23T01:38:27.137Z,83.15
2022-12-23T01:40:53.824Z,83.49
2022-12-23T01:43:20.719Z,84.20
2022-12-23T01:45:47.523Z,84.03
2022-12-23T01:48:23.833Z,84.62
2022-12-23T01:50:58.303Z,85.16
2022-12-23T01:53:40.640Z,85.05
2022-12-23T01:56:37.147Z,85.03
2022-12-23T01:59:09.432Z,85.38
2022-12-23T02:01:54.871Z,84.93
2022-12-23T02:04:24.490Z,84.71
2022-12-23T02:07:10.274Z,85.23
2022-12-23T02:09:38.793Z,85.27
2022-12-23T02:12:36.559Z,85.16
2022-12-23T02:15:31.512Z,85.05
2022-12-23T02:18:33.028Z,85.07
2022-12-23T02:21:08.855Z,84.42
2022-12-23T02:24:28.965Z,84.47
2022-12-23T02:27:12.283Z,84.44
2022-12-23T02:30:03.394Z,84.40
2022-12-23T02:32:59.063Z,84.26
2022-12-23T02:35:43.357Z,84.53
2022-12-23T02:38:30.946Z,84.78
2022-12-23T02:41:18.393Z,84.22
2022-12-23T02:44:01.992Z,84.61
2022-12-23T02:46:37.069Z,84.00
2022-12-23T02:49:11.108Z,84.26
2022-12-23T02:51:41.607Z,83.90
2022-12-23T02:54:11.820Z,84.15
2022-12-23T02:56:40.220Z,84.21
2022-12-23T02:59:12.489Z,85.10
2022-12-23T03:01:40.021Z,84.62
2022-12-23T03:04:07.084Z,84.76
2022-12-23T03:06:38.701Z,84.34
2022-12-23T03:09:05.389Z,84.18
2022-12-23T03:11:51.727Z,84.29
2022-12-23T03:14:27.515Z,84.32
2022-12-23T03:17:12.986Z,85.02
2022-12-23T03:19:57.879Z,84.28
2022-12-23T03:22:30.179Z,84.83
2022-12-23T03:25:17.024Z,85.38
2022-12-23T03:27:47.263Z,85.08
2022-12-23T03:30:16.209Z,84.93
2022-12-23T03:32:55.790Z,84.80
2022-12-23T03:35:45.842Z,84.73
2022-12-23T03:38:13.290Z,84.35
2022-12-23T03:40:43.686Z,84.36
2022-12-23T03:43:19.741Z,84.31
2022-12-23T03:45:52.931Z,85.19
2022-12-23T03:48:33.970Z,85.47
2022-12-23T03:51:05.836Z,84.79
2022-12-23T03:53:39.271Z,84.58
2022-12-23T03:56:09.083Z,84.71
2022-12-23T03:58:47.629Z,85.05
2022-12-23T04:01:35.597Z,84.69
2022-12-23T04:04:16.827Z,85.31
2022-12-23T04:07:00.870Z,84.53
2022-12-23T04:09:29.185Z,84.59
2022-12-23T04:11:56.937Z,84.63
2022-12-23T04:14:23.606Z,84.78
2022-12-23T04:16:55.662Z,84.87
2022-12-23T04:19:22.350Z,84.12
2022-12-23T04:21:49.026Z,84.60
2022-12-23T04:24:15.713Z,84.14
2022-12-23T04:26:42.374Z,84.48
2022-12-23T04:29:09.075Z,84.33
2022-12-23T04:31:35.764Z,84.37
2022-12-23T04:34:02.441Z,86.01
2022-12-23T04:36:29.132Z,86.28
2022-12-23T04:38:55.784Z,85.43
2022-12-23T04:41:22.852Z,84.97
2022-12-23T04:43:52.969Z,84.56
2022-12-23T04:46:20.549Z,84.61
2022-12-23T04:48:47.335Z,84.83
2022-12-23T04:51:13.984Z,84.75
2022-12-23T04:53:40.691Z,84.84
2022-12-23T04:56:10.372Z,84.51
2022-12-23T04:58:37.051Z,84.12
2022-12-23T05:01:09.046Z,84.63
2022-12-23T05:03:35.959Z,84.39
2022-12-23T05:06:03.259Z,85.33
2022-12-23T05:08:30.414Z,85.29
2022-12-23T05:10:57.386Z,84.96
2022-12-23T05:13:24.538Z,85.22
2022-12-23T05:15:53.110Z,84.70
2022-12-23T05:18:20.323Z,85.34
2022-12-23T05:20:47.036Z,85.02
2022-12-23T05:23:13.752Z,85.00
2022-12-23T05:25:40.608Z,85.14
2022-12-23T05:28:08.220Z,85.21
2022-12-23T05:30:34.860Z,85.16
2022-12-23T05:33:01.583Z,84.82
2022-12-23T05:35:28.277Z,85.00
2022-12-23T05:37:54.913Z,85.09
2022-12-23T05:40:29.357Z,84.85
2022-12-23T05:42:59.800Z,84.55
2022-12-23T05:45:26.614Z,84.69
2022-12-23T05:47:53.395Z,83.78
2022-12-23T05:50:20.079Z,84.22
2022-12-23T05:52:48.566Z,84.49
2022-12-23T05:55:15.323Z,84.27
2022-12-23T05:57:42.008Z,84.22
2022-12-23T06:00:09.791Z,84.57
2022-12-23T06:02:39.430Z,84.57
2022-12-23T06:05:06.443Z,85.10
2022-12-23T06:07:33.086Z,84.93
2022-12-23T06:09:59.752Z,85.00
2022-12-23T06:12:26.407Z,84.71
2022-12-23T06:14:53.087Z,84.99
2022-12-23T06:17:19.845Z,84.99
2022-12-23T06:19:47.586Z,85.77
2022-12-23T06:22:14.440Z,84.56
2022-12-23T06:24:41.127Z,85.03
2022-12-23T06:27:07.805Z,85.04
2022-12-23T06:29:34.503Z,85.27
2022-12-23T06:32:01.262Z,85.15
2022-12-23T06:34:28.190Z,85.91
2022-12-23T06:36:54.812Z,86.77
2022-12-23T06:39:21.585Z,86.53
2022-12-23T06:41:51.325Z,86.00
2022-12-23T06:44:18.245Z,86.23
2022-12-23T06:46:44.973Z,85.78
2022-12-23T06:49:13.680Z,85.43
2022-12-23T06:51:41.208Z,85.76
2022-12-23T06:54:10.784Z,85.41
2022-12-23T06:56:37.592Z,85.92
2022-12-23T06:59:04.253Z,85.31
2022-12-23T07:01:34.102Z,85.99
2022-12-23T07:04:02.002Z,85.60
2022-12-23T07:06:28.833Z,85.42
2022-12-23T07:08:55.452Z,85.16
2022-12-23T07:11:22.081Z,85.27
2022-12-23T07:13:49.047Z,85.57
2022-12-23T07:16:15.854Z,85.11
2022-12-23T07:18:42.608Z,85.02
2022-12-23T07:21:19.687Z,85.63
2022-12-23T07:23:51.335Z,85.29
2022-12-23T07:26:18.065Z,86.17
2022-12-23T07:28:48.858Z,85.79
2022-12-23T07:31:15.617Z,85.64
2022-12-23T07:33:42.670Z,86.31
2022-12-23T07:36:09.874Z,86.72
2022-12-23T07:38:36.542Z,86.91
2022-12-23T07:41:03.291Z,86.38
2022-12-23T07:43:29.980Z,86.59
2022-12-23T07:46:07.645Z,86.72
2022-12-23T07:48:34.422Z,86.36
2022-12-23T07:51:02.462Z,86.60
2022-12-23T07:53:29.587Z,87.53
2022-12-23T07:55:56.921Z,87.57
2022-12-23T07:58:24.144Z,87.21
2022-12-23T08:00:50.812Z,87.75
2022-12-23T08:03:17.572Z,87.83
2022-12-23T08:05:44.423Z,87.45
2022-12-23T08:08:12.001Z,87.84
2022-12-23T08:10:44.479Z,87.31
2022-12-23T08:13:14.605Z,88.66
2022-12-23T08:15:41.331Z,88.09
2022-12-23T08:18:07.951Z,87.68
2022-12-23T08:20:34.579Z,88.39
2022-12-23T08:23:01.333Z,90.36
2022-12-23T08:25:28.143Z,90.01
2022-12-23T08:27:54.769Z,89.27
2022-12-23T08:30:21.400Z,89.39
2022-12-23T08:32:49.198Z,88.92
2022-12-23T08:35:15.898Z,89.14
2022-12-23T08:37:42.568Z,88.65
2022-12-23T08:40:09.856Z,88.80
2022-12-23T08:42:36.806Z,88.91
2022-12-23T08:45:03.602Z,88.30
2022-12-23T08:47:30.194Z,88.37
2022-12-23T08:49:56.869Z,88.89
2022-12-23T08:52:23.609Z,88.81
2022-12-23T08:54:50.351Z,88.40
2022-12-23T08:57:18.015Z,88.90
2022-12-23T08:59:44.699Z,88.71
2022-12-23T09:02:11.931Z,89.07
2022-12-23T09:04:38.842Z,88.58
2022-12-23T09:07:08.744Z,88.73
2022-12-23T09:09:37.611Z,88.98
2022-12-23T09:12:04.702Z,89.67
2022-12-23T09:14:31.320Z,88.98
2022-12-23T09:16:57.942Z,89.11
2022-12-23T09:19:24.601Z,89.34
2022-12-23T09:21:51.254Z,89.35
2022-12-23T09:24:17.894Z,89.55
2022-12-23T09:26:44.771Z,89.40
2022-12-23T09:29:11.410Z,89.53
2022-12-23T09:31:38.257Z,89.06
2022-12-23T09:34:11.008Z,88.70
2022-12-23T09:36:37.986Z,89.62
2022-12-23T09:39:04.776Z,89.87
2022-12-23T09:41:43.708Z,89.53
2022-12-23T09:44:35.268Z,89.37
2022-12-23T09:47:05.336Z,89.17
2022-12-23T09:49:32.576Z,90.43
2022-12-23T09:52:03.122Z,90.45
2022-12-23T09:54:41.951Z,89.49
2022-12-23T09:57:21.966Z,89.36
2022-12-23T10:00:03.966Z,89.33
2022-12-23T10:02:42.465Z,89.24
2022-12-23T10:05:29.976Z,89.26
2022-12-23T10:08:04.242Z,88.59
2022-12-23T10:10:34.885Z,89.35
2022-12-23T10:13:04.258Z,89.49
2022-12-23T10:15:47.414Z,88.89
2022-12-23T10:18:26.281Z,88.96
2022-12-23T10:21:06.017Z,88.62
2022-12-23T10:23:38.448Z,88.80
2022-12-23T10:26:15.065Z,88.98
2022-12-23T10:28:41.642Z,89.38
2022-12-23T10:31:39.153Z,89.56
2022-12-23T10:34:18.623Z,88.54
2022-12-23T10:36:53.251Z,89.01
2022-12-23T10:39:37.259Z,88.85
2022-12-23T10:42:08.869Z,89.14
2022-12-23T10:44:54.159Z,89.46
2022-12-23T10:47:35.932Z,89.16
2022-12-23T10:50:34.880Z,89.71
2022-12-23T10:53:05.083Z,90.68
2022-12-23T10:55:35.221Z,90.04
2022-12-23T10:58:14.816Z,90.49
2022-12-23T11:00:44.866Z,89.24
2022-12-23T11:03:23.592Z,88.65
2022-12-23T11:05:52.367Z,89.15
2022-12-23T11:08:21.471Z,89.42
2022-12-23T11:10:48.555Z,88.74
2022-12-23T11:13:35.626Z,88.58
2022-12-23T11:16:26.958Z,89.24
2022-12-23T11:19:06.089Z,89.38
2022-12-23T11:21:33.822Z,88.87
2022-12-23T11:24:19.709Z,89.82
2022-12-23T11:26:48.410Z,89.05
2022-12-23T11:29:22.924Z,89.29
2022-12-23T11:31:49.952Z,88.13
2022-12-23T11:34:19.378Z,88.15
2022-12-23T11:37:01.852Z,88.89
2022-12-23T11:39:35.752Z,88.52
2022-12-23T11:42:12.848Z,88.74
2022-12-23T11:44:42.561Z,88.78
2022-12-23T11:47:30.856Z,88.96
2022-12-23T11:49:59.480Z,88.41
2022-12-23T11:52:29.067Z,88.54
2022-12-23T11:54:57.669Z,88.79
2022-12-23T11:57:39.289Z,88.37
2022-12-23T12:00:08.610Z,88.16
2022-12-23T12:02:41.991Z,87.98
2022-12-23T12:05:21.347Z,87.96
2022-12-23T12:07:48.863Z,88.55
2022-12-23T12:10:26.628Z,88.52
2022-12-23T12:13:05.827Z,87.76
2022-12-23T12:15:44.276Z,88.77
2022-12-23T12:18:16.276Z,88.36
2022-12-23T12:20:49.146Z,87.63
2022-12-23T12:23:25.734Z,87.25
2022-12-23T12:26:00.027Z,86.81
2022-12-23T12:28:34.943Z,87.27
2022-12-23T12:31:23.604Z,86.79
2022-12-23T12:34:01.386Z,87.02
2022-12-23T12:37:11.525Z,88.16
2022-12-23T12:39:43.597Z,88.51
2022-12-23T12:42:17.772Z,88.17
2022-12-23T12:45:05.644Z,87.09
2022-12-23T12:47:54.202Z,88.60
2022-12-23T12:50:29.464Z,88.50
2022-12-23T12:53:00.748Z,87.73
2022-12-23T12:55:33.732Z,87.44
2022-12-23T12:58:02.805Z,87.51
2022-12-23T13:00:30.630Z,87.66
2022-12-23T13:03:12.290Z,87.82
2022-12-23T13:05:53.405Z,87.63
2022-12-23T13:08:42.277Z,87.10
2022-12-23T13:11:33.813Z,87.73
2022-12-23T13:14:22.279Z,87.50
2022-12-23T13:17:08.814Z,86.96
2022-12-23T13:19:47.134Z,87.82
2022-12-23T13:22:18.515Z,87.39
2022-12-23T13:25:04.233Z,87.31
2022-12-23T13:27:41.079Z,86.80
2022-12-23T13:30:14.448Z,86.65
2022-12-23T13:33:00.927Z,86.03
2022-12-23T13:36:05.051Z,86.65
2022-12-23T13:38:56.387Z,87.50
2022-12-23T13:41:29.729Z,87.61
2022-12-23T13:44:00.242Z,86.64
2022-12-23T13:46:48.816Z,86.41
2022-12-23T13:49:40.401Z,86.73
2022-12-23T13:52:17.906Z,86.38
2022-12-23T13:54:53.388Z,85.68
2022-12-23T13:57:47.629Z,85.45
2022-12-23T14:00:17.824Z,85.73
2022-12-23T14:03:00.257Z,85.09
2022-12-23T14:05:38.020Z,85.88
2022-12-23T14:08:20.180Z,85.37
2022-12-23T14:11:11.637Z,84.60
2022-12-23T14:13:42.532Z,85.35
2022-12-23T14:16:14.809Z,85.31
2022-12-23T14:18:45.080Z,85.22
2022-12-23T14:21:39.021Z,85.08
2022-12-23T14:24:45.420Z,85.30
2022-12-23T14:27:32.064Z,85.61
2022-12-23T14:30:10.642Z,85.81
2022-12-23T14:32:52.115Z,85.13
2022-12-23T14:35:23.597Z,84.63
2022-12-23T14:38:15.060Z,84.45
2022-12-23T14:40:41.590Z,84.79
2022-12-23T14:43:25.362Z,84.52
2022-12-23T14:45:53.917Z,84.34
2022-12-23T14:48:41.619Z,83.87
2022-12-23T14:51:08.322Z,84.50
2022-12-23T14:53:57.837Z,84.53
2022-12-23T14:56:40.392Z,84.56
2022-12-23T14:59:30.676Z,83.98
2022-12-23T15:02:00.803Z,83.33
2022-12-23T15:04:31.740Z,84.08
2022-12-23T15:07:14.212Z,84.00
2022-12-23T15:09:54.518Z,84.18
2022-12-23T15:12:32.668Z,83.25
2022-12-23T15:15:05.172Z,82.71
2022-12-23T15:17:34.892Z,83.04
2022-12-23T15:20:10.945Z,83.53
2022-12-23T15:22:38.635Z,83.77
2022-12-23T15:25:06.197Z,83.38
2022-12-23T15:27:35.742Z,84.04
2022-12-23T15:30:02.648Z,84.08
2022-12-23T15:32:32.525Z,84.35
2022-12-23T15:35:05.301Z,83.65
2022-12-23T15:37:35.143Z,83.12
2022-12-23T15:40:12.697Z,82.73
2022-12-23T15:42:46.915Z,83.27
2022-12-23T15:45:30.479Z,83.76
2022-12-23T15:47:57.121Z,83.44
2022-12-23T15:50:23.894Z,82.99
2022-12-23T15:52:54.641Z,82.88
2022-12-23T15:55:33.009Z,83.67
2022-12-23T15:58:00.508Z,83.64
2022-12-23T16:00:40.623Z,83.56
2022-12-23T16:03:24.295Z,83.25
2022-12-23T16:05:51.128Z,83.24
2022-12-23T16:08:19.387Z,83.67
2022-12-23T16:11:21.100Z,83.31
2022-12-23T16:13:58.488Z,83.47
2022-12-23T16:16:40.113Z,82.98
2022-12-23T16:19:56.218Z,83.24
2022-12-23T16:22:28.787Z,83.09
2022-12-23T16:25:05.646Z,82.68
2022-12-23T16:27:36.007Z,82.21
2022-12-23T16:30:16.655Z,82.70
2022-12-23T16:32:53.025Z,82.79
2022-12-23T16:35:28.184Z,82.81
2022-12-23T16:38:22.380Z,82.91
2022-12-23T16:40:51.335Z,82.70
2022-12-23T16:43:19.541Z,82.78
2022-12-23T16:45:48.073Z,82.29
2022-12-23T16:48:40.230Z,81.82
2022-12-23T16:51:20.347Z,81.83
2022-12-23T16:53:48.310Z,81.81
2022-12-23T16:56:16.528Z,82.06
2022-12-23T16:58:43.833Z,82.34
2022-12-23T17:01:30.299Z,82.81
2022-12-23T17:03:57.214Z,83.43
2022-12-23T17:06:24.929Z,82.92
2022-12-23T17:08:53.327Z,82.94
2022-12-23T17:11:33.974Z,82.65
2022-12-23T17:14:05.614Z,83.26
2022-12-23T17:16:33.547Z,83.37
2022-12-23T17:19:00.366Z,82.87
2022-12-23T17:21:30.666Z,82.77
2022-12-23T17:24:16.132Z,83.13
2022-12-23T17:26:42.847Z,83.45
2022-12-23T17:29:10.379Z,83.51
2022-12-23T17:31:37.342Z,82.67
2022-12-23T17:34:04.227Z,82.31
2022-12-23T17:36:31.068Z,82.50
2022-12-23T17:38:57.865Z,82.67
2022-12-23T17:41:31.044Z,82.82
2022-12-23T17:43:58.295Z,82.21
2022-12-23T17:46:26.088Z,81.95
2022-12-23T17:48:53.037Z,82.14
2022-12-23T17:51:22.312Z,82.24
2022-12-23T17:53:56.828Z,82.31
2022-12-23T17:56:25.054Z,82.74
2022-12-23T17:58:54.795Z,82.65
2022-12-23T18:01:29.958Z,83.19
2022-12-23T18:03:57.753Z,82.49
2022-12-23T18:06:26.215Z,82.01
2022-12-23T18:08:52.870Z,81.63
2022-12-23T18:11:41.995Z,81.90
2022-12-23T18:14:18.216Z,82.27
2022-12-23T18:16:44.971Z,82.92
2022-12-23T18:19:18.605Z,83.10
2022-12-23T18:21:47.135Z,82.79
2022-12-23T18:24:13.992Z,82.93
2022-12-23T18:26:40.845Z,82.75
2022-12-23T18:29:07.575Z,83.31
2022-12-23T18:31:35.702Z,84.05
2022-12-23T18:34:02.453Z,83.49
2022-12-23T18:36:31.529Z,82.98
2022-12-23T18:38:58.483Z,83.20
2022-12-23T18:41:26.771Z,83.12
2022-12-23T18:43:54.141Z,83.28
2022-12-23T18:46:21.370Z,82.96
2022-12-23T18:48:48.669Z,83.07
2022-12-23T18:51:17.044Z,83.34
2022-12-23T18:53:44.214Z,83.24
2022-12-23T18:56:14.680Z,82.96
2022-12-23T18:58:41.762Z,82.88
2022-12-23T19:01:16.517Z,83.15
2022-12-23T19:03:43.746Z,82.94
2022-12-23T19:06:13.435Z,82.89
2022-12-23T19:08:40.815Z,83.02
2022-12-23T19:11:16.365Z,82.39
2022-12-23T19:13:43.114Z,82.21
2022-12-23T19:16:13.771Z,82.13
2022-12-23T19:18:40.645Z,82.73
2022-12-23T19:21:10.703Z,83.15
2022-12-23T19:23:39.768Z,83.07
2022-12-23T19:26:06.410Z,83.21
2022-12-23T19:28:33.688Z,82.98
2022-12-23T19:31:00.381Z,82.97
2022-12-23T19:33:27.210Z,82.72
2022-12-23T19:35:54.075Z,82.50
2022-12-23T19:38:21.249Z,82.07
2022-12-23T19:40:56.418Z,82.41
2022-12-23T19:43:23.062Z,83.05
2022-12-23T19:46:00.623Z,83.14
2022-12-23T19:48:28.136Z,83.26
2022-12-23T19:51:08.463Z,83.85
2022-12-23T19:53:35.725Z,83.40
2022-12-23T19:56:05.278Z,83.03
2022-12-23T19:58:33.567Z,83.10
2022-12-23T20:01:10.929Z,82.78
2022-12-23T20:03:38.401Z,83.06
2022-12-23T20:06:06.493Z,83.32
2022-12-23T20:08:34.419Z,83.60
2022-12-23T20:11:09.024Z,83.47
2022-12-23T20:13:36.331Z,83.48
2022-12-23T20:16:04.467Z,83.82
2022-12-23T20:18:31.465Z,83.50
2022-12-23T20:20:59.732Z,83.94
2022-12-23T20:23:27.245Z,83.80
2022-12-23T20:25:53.941Z,84.13
2022-12-23T20:28:21.246Z,84.39
2022-12-23T20:30:48.524Z,84.36
2022-12-23T20:33:15.852Z,84.10
2022-12-23T20:35:42.633Z,84.18
2022-12-23T20:38:09.415Z,83.95
2022-12-23T20:40:36.179Z,84.26
2022-12-23T20:43:08.112Z,84.11
2022-12-23T20:45:41.829Z,83.76
2022-12-23T20:48:09.067Z,83.62
2022-12-23T20:50:42.095Z,84.28
2022-12-23T20:53:11.834Z,84.04
2022-12-23T20:55:38.887Z,84.13
2022-12-23T20:58:24.722Z,84.33
2022-12-23T21:00:51.438Z,84.06
2022-12-23T21:03:18.162Z,83.96
2022-12-23T21:05:44.889Z,83.71
2022-12-23T21:08:14.574Z,83.72
2022-12-23T21:10:41.307Z,83.82
2022-12-23T21:13:08.074Z,84.29
2022-12-23T21:15:34.924Z,84.31
2022-12-23T21:18:01.550Z,84.35
2022-12-23T21:20:28.213Z,84.39
2022-12-23T21:22:54.878Z,84.25
2022-12-23T21:25:21.588Z,85.28
2022-12-23T21:27:48.229Z,84.67
2022-12-23T21:30:14.961Z,84.84
2022-12-23T21:32:41.702Z,84.31
2022-12-23T21:35:08.842Z,84.38
2022-12-23T21:37:35.631Z,83.72
2022-12-23T21:40:02.270Z,83.89
2022-12-23T21:42:28.998Z,84.30
2022-12-23T21:44:55.648Z,84.22
2022-12-23T21:47:22.323Z,84.45
2022-12-23T21:49:48.953Z,84.82
2022-12-23T21:52:15.613Z,84.55
2022-12-23T21:54:42.255Z,84.67
2022-12-23T21:57:08.974Z,84.63
2022-12-23T21:59:35.767Z,84.58
2022-12-23T22:02:02.563Z,85.08
2022-12-23T22:04:29.214Z,84.93
2022-12-23T22:06:55.979Z,84.85
2022-12-23T22:09:22.739Z,84.45
2022-12-23T22:11:49.517Z,84.94
2022-12-23T22:14:18.067Z,85.15
2022-12-23T22:16:44.894Z,85.06
2022-12-23T22:19:15.023Z,85.49
2022-12-23T22:21:42.802Z,85.33
2022-12-23T22:24:09.908Z,85.33
2022-12-23T22:26:36.734Z,85.68
2022-12-23T22:29:07.086Z,85.92
2022-12-23T22:31:40.266Z,86.02
2022-12-23T22:34:08.260Z,85.89
2022-12-23T22:36:35.037Z,85.88
2022-12-23T22:39:02.068Z,85.69
2022-12-23T22:41:29.737Z,85.72
2022-12-23T22:43:57.241Z,85.64
2022-12-23T22:46:24.648Z,85.55
2022-12-23T22:48:52.538Z,85.43
2022-12-23T22:51:26.166Z,85.72
2022-12-23T22:53:52.886Z,86.00
2022-12-23T22:56:20.826Z,86.15
2022-12-23T22:58:47.633Z,85.91
2022-12-23T23:01:23.611Z,86.10
2022-12-23T23:03:56.999Z,85.54
2022-12-23T23:06:29.228Z,85.14
2022-12-23T23:08:56.939Z,85.77
2022-12-23T23:11:24.627Z,85.89
2022-12-23T23:13:52.700Z,85.63
2022-12-23T23:16:19.428Z,85.10
2022-12-23T23:18:46.588Z,85.61
2022-12-23T23:21:14.915Z,85.64
2022-12-23T23:23:41.539Z,85.32
2022-12-23T23:26:10.326Z,85.07
2022-12-23T23:28:39.469Z,85.72
2022-12-23T23:31:40.482Z,86.37
2022-12-23T23:33:53.873Z,86.02
2022-12-23T23:36:21.018Z,85.58
2022-12-23T23:38:47.840Z,85.48
2022-12-23T23:41:18.862Z,85.56
2022-12-23T23:43:49.392Z,85.38
2022-12-23T23:46:16.128Z,85.07
2022-12-23T23:48:42.980Z,86.22
2022-12-23T23:51:10.769Z,85.65
2022-12-23T23:53:37.431Z,85.56
2022-12-23T23:56:06.590Z,86.00
2022-12-23T23:58:34.245Z,85.49
